Latest Weather Observations for St Kilda Harbour RMYS

IDV60801

Issued at 3:05 pm EST Friday 25 April 2014 (issued every 30 minutes, with the page automatically refreshed every 10 minutes)

About weather observations | Map of weather stations | Latest weather observations for VIC | Other Formats
Station Details ID: 086220 Name: ST KILDA HARBOUR - RMYS Lat: -37.86 Lon: 144.96 Height: 6.4 m
Data from the previous 72 hours. | See also: Recent months for locations in Victoria
Date/Time
EST
Temp
°C
App
Temp
°C
Dew
Point
Rel
Hum
%
Delta-T
°C
Wind Press
QNH
hPa
Press
MSL
hPa
Rain
since 9 am
mm
Dir
 
Spd
km/h
Gust
km/h
Spd
kts
Gust
kts
25/03:00pm - - - - - NNW 28 39 15 21 - - -
25/02:30pm - - - - - N 26 37 14 20 - - -
25/02:00pm - - - - - NNW 30 41 16 22 - - -
25/01:30pm - - - - - N 22 30 12 16 - - -
25/01:00pm - - - - - SSW 6 11 3 6 - - -
25/12:30pm - - - - - S 6 9 3 5 - - -
25/12:00pm - - - - - S 6 7 3 4 - - -
25/11:30am - - - - - SSW 7 13 4 7 - - -
25/11:00am - - - - - N 4 6 2 3 - - -
25/10:30am - - - - - N 7 11 4 6 - - -
25/10:00am - - - - - NNE 9 13 5 7 - - -
25/09:30am - - - - - NNE 9 13 5 7 - - -
25/09:00am - - - - - N 9 13 5 7 - - -
25/08:30am - - - - - NNE 9 13 5 7 - - -
25/08:00am - - - - - NNE 9 13 5 7 - - -
25/07:30am - - - - - NNE 6 9 3 5 - - -
25/07:00am - - - - - NNE 7 11 4 6 - - -
25/06:30am - - - - - NNE 6 7 3 4 - - -
25/06:00am - - - - - NNE 7 13 4 7 - - -
25/05:30am - - - - - NNE 7 9 4 5 - - -
25/05:00am - - - - - NNE 6 7 3 4 - - -
25/04:30am - - - - - N 6 7 3 4 - - -
25/04:00am - - - - - NNW 6 7 3 4 - - -
25/03:30am - - - - - N 9 13 5 7 - - -
25/03:00am - - - - - NNE 7 11 4 6 - - -
25/02:30am - - - - - NE 9 13 5 7 - - -
25/02:00am - - - - - ENE 13 17 7 9 - - -
25/01:30am - - - - - E 13 19 7 10 - - -
25/01:00am - - - - - E 13 19 7 10 - - -
25/12:30am - - - - - ENE 9 13 5 7 - - -
25/12:00am - - - - - ENE 11 15 6 8 - - -
 
Date/Time
EST
Temp
°C
App
Temp
°C
Dew
Point
Rel
Hum
%
Delta-T
°C
Wind Press
QNH
hPa
Press
MSL
hPa
Rain
since 9 am
mm
Dir
 
Spd
km/h
Gust
km/h
Spd
kts
Gust
kts
24/11:30pm - - - - - ENE 9 13 5 7 - - -
24/11:00pm - - - - - E 13 17 7 9 - - -
24/10:30pm - - - - - ESE 11 17 6 9 - - -
24/10:00pm - - - - - ESE 9 13 5 7 - - -
24/09:30pm - - - - - E 11 13 6 7 - - -
24/09:00pm - - - - - ESE 11 15 6 8 - - -
24/08:30pm - - - - - ESE 13 17 7 9 - - -
24/08:00pm - - - - - ESE 11 15 6 8 - - -
24/07:30pm - - - - - SSE 15 22 8 12 - - -
24/07:00pm - - - - - S 20 28 11 15 - - -
24/06:30pm - - - - - S 24 32 13 17 - - -
24/06:00pm - - - - - S 24 30 13 16 - - -
24/05:30pm - - - - - S 26 32 14 17 - - -
24/05:00pm - - - - - S 28 33 15 18 - - -
24/04:30pm - - - - - S 26 30 14 16 - - -
24/04:00pm - - - - - S 24 32 13 17 - - -
24/03:30pm - - - - - S 22 26 12 14 - - -
24/03:00pm - - - - - SSW 17 22 9 12 - - -
24/02:30pm - - - - - SW 19 24 10 13 - - -
24/02:00pm - - - - - SSW 20 28 11 15 - - -
24/01:30pm - - - - - SSW 20 26 11 14 - - -
24/01:00pm - - - - - SSW 24 30 13 16 - - -
24/12:30pm - - - - - SW 32 43 17 23 - - -
24/12:00pm - - - - - SW 30 35 16 19 - - -
24/11:30am - - - - - SW 33 39 18 21 - - -
24/11:00am - - - - - WSW 32 39 17 21 - - -
24/10:30am - - - - - WSW 37 44 20 24 - - -
24/10:00am - - - - - WSW 35 43 19 23 - - -
24/09:30am - - - - - WSW 33 39 18 21 - - -
24/09:00am - - - - - W 32 39 17 21 - - -
24/08:30am - - - - - W 39 48 21 26 - - -
24/08:00am - - - - - WNW 30 44 16 24 - - -
24/07:30am - - - - - NNW 22 32 12 17 - - -
24/07:00am - - - - - NNW 22 30 12 16 - - -
24/06:30am - - - - - NNW 22 28 12 15 - - -
24/06:00am - - - - - NNW 22 32 12 17 - - -
24/05:30am - - - - - N 20 30 11 16 - - -
24/05:00am - - - - - N 26 32 14 17 - - -
24/04:30am - - - - - N 20 28 11 15 - - -
24/04:00am - - - - - N 20 28 11 15 - - -
24/03:30am - - - - - N 24 32 13 17 - - -
24/03:00am - - - - - NNW 26 37 14 20 - - -
24/02:30am - - - - - N 24 32 13 17 - - -
24/02:00am - - - - - N 24 37 13 20 - - -
24/01:30am - - - - - N 26 33 14 18 - - -
24/01:00am - - - - - N 24 30 13 16 - - -
24/12:30am - - - - - N 22 28 12 15 - - -
24/12:00am - - - - - N 17 22 9 12 - - -
 
Date/Time
EST
Temp
°C
App
Temp
°C
Dew
Point
Rel
Hum
%
Delta-T
°C
Wind Press
QNH
hPa
Press
MSL
hPa
Rain
since 9 am
mm
Dir
 
Spd
km/h
Gust
km/h
Spd
kts
Gust
kts
23/11:30pm - - - - - N 20 28 11 15 - - -
23/11:00pm - - - - - N 17 24 9 13 - - -
23/10:30pm - - - - - N 15 19 8 10 - - -
23/10:00pm - - - - - N 17 20 9 11 - - -
23/09:30pm - - - - - NNW 13 17 7 9 - - -
23/09:00pm - - - - - NNW 11 15 6 8 - - -
23/08:30pm - - - - - NNW 9 11 5 6 - - -
23/08:00pm - - - - - WNW 4 6 2 3 - - -
23/07:30pm - - - - - NNW 2 2 1 1 - - -
23/07:00pm - - - - - ENE 2 2 1 1 - - -
23/06:30pm - - - - - E 4 6 2 3 - - -
23/06:00pm - - - - - SE 7 9 4 5 - - -
23/05:30pm - - - - - S 11 13 6 7 - - -
23/05:00pm - - - - - S 6 9 3 5 - - -
23/04:30pm - - - - - S 6 7 3 4 - - -
23/04:00pm - - - - - SSE 6 6 3 3 - - -
23/03:30pm - - - - - S 7 9 4 5 - - -
23/03:00pm - - - - - SSE 9 11 5 6 - - -
23/02:30pm - - - - - S 7 9 4 5 - - -
23/02:00pm - - - - - SSE 9 11 5 6 - - -
23/01:30pm - - - - - S 9 11 5 6 - - -
23/01:00pm - - - - - S 11 13 6 7 - - -
23/12:30pm - - - - - S 9 13 5 7 - - -
23/12:00pm - - - - - SSW 11 13 6 7 - - -
23/11:30am - - - - - SSW 7 9 4 5 - - -
23/11:00am - - - - - SSW 6 9 3 5 - - -
23/10:30am - - - - - WSW 11 15 6 8 - - -
23/10:00am - - - - - WSW 13 19 7 10 - - -
23/09:30am - - - - - W 15 17 8 9 - - -
23/09:00am - - - - - WSW 17 22 9 12 - - -
23/08:30am - - - - - WSW 15 19 8 10 - - -
23/08:00am - - - - - W 13 17 7 9 - - -
23/07:30am - - - - - W 13 15 7 8 - - -
23/07:00am - - - - - W 7 11 4 6 - - -
23/06:30am - - - - - WNW 9 11 5 6 - - -
23/06:00am - - - - - W 15 19 8 10 - - -
23/05:30am - - - - - W 13 15 7 8 - - -
23/05:00am - - - - - WNW 11 15 6 8 - - -
23/04:30am - - - - - W 11 13 6 7 - - -
23/04:00am - - - - - W 9 11 5 6 - - -
23/03:30am - - - - - W 4 7 2 4 - - -
23/03:00am - - - - - N 4 6 2 3 - - -
23/02:30am - - - - - NNW 4 6 2 3 - - -
23/02:00am - - - - - ENE 6 7 3 4 - - -
23/01:30am - - - - - E 4 7 2 4 - - -
23/01:00am - - - - - E 6 7 3 4 - - -
23/12:30am - - - - - E 6 7 3 4 - - -
23/12:00am - - - - - E 6 9 3 5 - - -
 
Date/Time
EST
Temp
°C
App
Temp
°C
Dew
Point
Rel
Hum
%
Delta-T
°C
Wind Press
QNH
hPa
Press
MSL
hPa
Rain
since 9 am
mm
Dir
 
Spd
km/h
Gust
km/h
Spd
kts
Gust
kts
22/11:30pm - - - - - ESE 7 9 4 5 - - -
22/11:00pm - - - - - ESE 7 9 4 5 - - -
22/10:30pm - - - - - ESE 6 6 3 3 - - -
22/10:00pm - - - - - ESE 4 6 2 3 - - -
22/09:30pm - - - - - SE 7 11 4 6 - - -
22/09:00pm - - - - - ESE 7 11 4 6 - - -
22/08:30pm - - - - - S 19 20 10 11 - - -
22/08:00pm - - - - - S 20 24 11 13 - - -
22/07:30pm - - - - - S 22 26 12 14 - - -
22/07:00pm - - - - - S 22 26 12 14 - - -
22/06:30pm - - - - - SSE 6 9 3 5 - - -
22/06:00pm - - - - - SSE 4 7 2 4 - - -
22/05:30pm - - - - - CALM 0 2 0 1 - - -
22/05:00pm - - - - - NE 4 6 2 3 - - -
22/04:30pm - - - - - N 2 6 1 3 - - -
22/04:00pm - - - - - N 2 6 1 3 - - -
22/03:30pm - - - - - ENE 6 7 3 4 - - -

Other Formats:

Comma delimited format used in spreadsheet applications
http://www.bom.gov.au/fwo/IDV60801/IDV60801.95864.axf

JavaScript Object Notation format (JSON) in row-major order
http://www.bom.gov.au/fwo/IDV60801/IDV60801.95864.json